EGLL

London Heathrow Airport

London, United Kingdom
METAR EGLL 200520Z AUTO 21007KT 200V260 2400 BR BKN002 OVC006 15/15 Q1021 BECMG 5000 BKN004
Observed Flight Rules
Jun-20 @ 05:20 UTC (17 minutes ago) Instrument Flight Rules
Wind Visibility Clouds Conditions
210° at 7 knots 2,398 meters
  • Broken at 200' AGL
  • Overcast at 600' AGL
  • Mist
Temperatures Readings
Current 15°C / 59°F
Dewpoint 15°C / 59°F
Humidity 100%
Altimeter 30.15" Hg
Pressure 1021 hPa
Elevation 24
METAR EGLL 200520Z AUTO 21007KT 200V260 2400 BR BKN002 OVC006 15/15 Q1021 BECMG 5000 BKN004
Observed Flight Rules
Jun-20 @ 05:20 UTC
(17 minutes ago)
LIFR
Wind Visibility
210° at 7 knots 2,398 meters
Clouds
  • Broken at 200' AGL
  • Overcast at 600' AGL
Conditions
  • Mist
Temperature Dewpoint
15°C / 59°F 15°C / 59°F
Humidity Altimeter Pressure
100% 30.15" Hg 1021 hPa